sensor_id;sensor_type;location;lat;lon;timestamp;P1;durP1;ratioP1;P2;durP2;ratioP2
31990;SDS011;18508;49.386;8.370;2023-01-24T00:01:20;23.00;;;10.82;;
31990;SDS011;18508;49.386;8.370;2023-01-24T00:03:53;27.38;;;11.52;;
31990;SDS011;18508;49.386;8.370;2023-01-24T00:06:23;23.42;;;11.27;;
31990;SDS011;18508;49.386;8.370;2023-01-24T00:08:55;27.73;;;11.80;;
31990;SDS011;18508;49.386;8.370;2023-01-24T00:11:24;27.27;;;11.95;;
31990;SDS011;18508;49.386;8.370;2023-01-24T00:13:52;28.48;;;12.88;;
31990;SDS011;18508;49.386;8.370;2023-01-24T00:16:20;27.23;;;11.63;;
31990;SDS011;18508;49.386;8.370;2023-01-24T00:18:49;28.55;;;11.70;;
31990;SDS011;18508;49.386;8.370;2023-01-24T00:21:18;22.95;;;10.73;;
31990;SDS011;18508;49.386;8.370;2023-01-24T00:23:49;25.10;;;10.63;;
31990;SDS011;18508;49.386;8.370;2023-01-24T00:26:19;25.67;;;10.80;;
31990;SDS011;18508;49.386;8.370;2023-01-24T00:28:48;31.42;;;12.50;;
31990;SDS011;18508;49.386;8.370;2023-01-24T00:31:17;28.10;;;10.75;;
31990;SDS011;18508;49.386;8.370;2023-01-24T00:33:46;22.83;;;10.77;;
31990;SDS011;18508;49.386;8.370;2023-01-24T00:36:15;26.35;;;11.15;;
31990;SDS011;18508;49.386;8.370;2023-01-24T00:38:43;26.48;;;11.82;;
31990;SDS011;18508;49.386;8.370;2023-01-24T00:41:11;25.30;;;11.73;;
31990;SDS011;18508;49.386;8.370;2023-01-24T00:43:41;24.33;;;11.05;;
31990;SDS011;18508;49.386;8.370;2023-01-24T00:46:09;23.77;;;11.07;;
31990;SDS011;18508;49.386;8.370;2023-01-24T00:48:37;27.20;;;11.93;;
31990;SDS011;18508;49.386;8.370;2023-01-24T00:51:05;23.30;;;10.88;;
31990;SDS011;18508;49.386;8.370;2023-01-24T00:53:34;26.70;;;10.90;;
31990;SDS011;18508;49.386;8.370;2023-01-24T00:56:02;26.80;;;11.45;;
31990;SDS011;18508;49.386;8.370;2023-01-24T00:58:31;23.05;;;10.75;;
31990;SDS011;18508;49.386;8.370;2023-01-24T01:01:01;21.88;;;10.50;;
31990;SDS011;18508;49.386;8.370;2023-01-24T01:03:29;22.58;;;9.85;;
31990;SDS011;18508;49.386;8.370;2023-01-24T01:05:59;23.48;;;10.75;;
31990;SDS011;18508;49.386;8.370;2023-01-24T01:08:28;22.73;;;10.05;;
31990;SDS011;18508;49.386;8.370;2023-01-24T01:10:57;26.00;;;10.63;;
31990;SDS011;18508;49.386;8.370;2023-01-24T01:13:26;25.67;;;10.68;;
31990;SDS011;18508;49.386;8.370;2023-01-24T01:16:00;22.33;;;9.93;;
31990;SDS011;18508;49.386;8.370;2023-01-24T01:18:31;24.40;;;11.13;;
31990;SDS011;18508;49.386;8.370;2023-01-24T01:21:01;25.13;;;10.77;;
31990;SDS011;18508;49.386;8.370;2023-01-24T01:23:29;24.70;;;11.50;;
31990;SDS011;18508;49.386;8.370;2023-01-24T01:25:58;24.50;;;10.77;;
31990;SDS011;18508;49.386;8.370;2023-01-24T01:28:28;22.52;;;10.13;;
31990;SDS011;18508;49.386;8.370;2023-01-24T01:30:58;25.13;;;11.55;;
31990;SDS011;18508;49.386;8.370;2023-01-24T01:33:30;26.10;;;10.85;;
31990;SDS011;18508;49.386;8.370;2023-01-24T01:35:59;23.85;;;10.45;;
31990;SDS011;18508;49.386;8.370;2023-01-24T01:38:28;21.70;;;10.50;;
31990;SDS011;18508;49.386;8.370;2023-01-24T01:40:56;25.52;;;10.60;;
31990;SDS011;18508;49.386;8.370;2023-01-24T01:43:26;22.70;;;11.10;;
31990;SDS011;18508;49.386;8.370;2023-01-24T01:45:57;22.30;;;9.40;;
31990;SDS011;18508;49.386;8.370;2023-01-24T01:48:32;24.38;;;10.52;;
31990;SDS011;18508;49.386;8.370;2023-01-24T01:51:04;25.33;;;10.70;;
31990;SDS011;18508;49.386;8.370;2023-01-24T01:53:40;22.20;;;9.93;;
31990;SDS011;18508;49.386;8.370;2023-01-24T01:56:17;26.70;;;11.45;;
31990;SDS011;18508;49.386;8.370;2023-01-24T01:58:50;23.13;;;10.98;;
31990;SDS011;18508;49.386;8.370;2023-01-24T02:01:20;24.52;;;11.40;;
31990;SDS011;18508;49.386;8.370;2023-01-24T02:03:53;26.02;;;11.30;;
31990;SDS011;18508;49.386;8.370;2023-01-24T02:06:34;28.63;;;11.77;;
31990;SDS011;18508;49.386;8.370;2023-01-24T02:09:13;23.73;;;10.52;;
31990;SDS011;18508;49.386;8.370;2023-01-24T02:11:44;21.95;;;10.57;;
31990;SDS011;18508;49.386;8.370;2023-01-24T02:14:15;23.90;;;10.32;;
31990;SDS011;18508;49.386;8.370;2023-01-24T02:17:04;24.95;;;10.77;;
31990;SDS011;18508;49.386;8.370;2023-01-24T02:19:40;23.42;;;10.32;;
31990;SDS011;18508;49.386;8.370;2023-01-24T02:22:15;25.50;;;11.48;;
31990;SDS011;18508;49.386;8.370;2023-01-24T02:24:53;22.85;;;9.73;;
31990;SDS011;18508;49.386;8.370;2023-01-24T02:27:30;24.17;;;9.90;;
31990;SDS011;18508;49.386;8.370;2023-01-24T02:29:58;25.25;;;10.85;;
31990;SDS011;18508;49.386;8.370;2023-01-24T02:32:27;24.15;;;10.30;;
31990;SDS011;18508;49.386;8.370;2023-01-24T02:34:58;26.13;;;10.93;;
31990;SDS011;18508;49.386;8.370;2023-01-24T02:37:25;22.65;;;10.43;;
31990;SDS011;18508;49.386;8.370;2023-01-24T02:39:56;24.00;;;11.07;;
31990;SDS011;18508;49.386;8.370;2023-01-24T02:42:30;24.98;;;10.43;;
31990;SDS011;18508;49.386;8.370;2023-01-24T02:45:04;24.42;;;10.95;;
31990;SDS011;18508;49.386;8.370;2023-01-24T02:47:36;23.10;;;10.70;;
31990;SDS011;18508;49.386;8.370;2023-01-24T02:50:09;24.00;;;10.73;;
31990;SDS011;18508;49.386;8.370;2023-01-24T02:52:38;25.20;;;10.45;;
31990;SDS011;18508;49.386;8.370;2023-01-24T02:55:25;23.48;;;10.77;;
31990;SDS011;18508;49.386;8.370;2023-01-24T03:00:35;25.02;;;10.65;;
31990;SDS011;18508;49.386;8.370;2023-01-24T03:03:05;25.08;;;11.27;;
31990;SDS011;18508;49.386;8.370;2023-01-24T03:05:35;24.50;;;10.48;;
31990;SDS011;18508;49.386;8.370;2023-01-24T03:08:23;28.05;;;11.75;;
31990;SDS011;18508;49.386;8.370;2023-01-24T03:10:52;25.35;;;10.95;;
31990;SDS011;18508;49.386;8.370;2023-01-24T03:13:23;22.65;;;9.95;;
31990;SDS011;18508;49.386;8.370;2023-01-24T03:16:11;23.83;;;10.30;;
31990;SDS011;18508;49.386;8.370;2023-01-24T03:18:56;22.20;;;10.27;;
31990;SDS011;18508;49.386;8.370;2023-01-24T03:21:43;26.08;;;11.30;;
31990;SDS011;18508;49.386;8.370;2023-01-24T03:24:28;24.92;;;10.57;;
31990;SDS011;18508;49.386;8.370;2023-01-24T03:27:14;23.48;;;10.55;;
31990;SDS011;18508;49.386;8.370;2023-01-24T03:30:01;26.20;;;10.77;;
31990;SDS011;18508;49.386;8.370;2023-01-24T03:32:47;27.75;;;11.52;;
31990;SDS011;18508;49.386;8.370;2023-01-24T03:35:33;22.90;;;10.32;;
31990;SDS011;18508;49.386;8.370;2023-01-24T03:38:01;24.65;;;11.00;;
31990;SDS011;18508;49.386;8.370;2023-01-24T03:40:50;26.17;;;11.45;;
31990;SDS011;18508;49.386;8.370;2023-01-24T03:43:18;25.63;;;11.07;;
31990;SDS011;18508;49.386;8.370;2023-01-24T03:45:51;26.80;;;12.18;;
31990;SDS011;18508;49.386;8.370;2023-01-24T03:48:20;28.95;;;11.75;;
31990;SDS011;18508;49.386;8.370;2023-01-24T03:50:52;29.03;;;11.97;;
31990;SDS011;18508;49.386;8.370;2023-01-24T03:53:38;29.50;;;11.32;;
31990;SDS011;18508;49.386;8.370;2023-01-24T03:56:08;26.27;;;10.95;;
31990;SDS011;18508;49.386;8.370;2023-01-24T03:58:38;23.55;;;11.23;;
31990;SDS011;18508;49.386;8.370;2023-01-24T04:01:08;21.58;;;10.23;;
31990;SDS011;18508;49.386;8.370;2023-01-24T04:03:37;26.40;;;9.75;;
31990;SDS011;18508;49.386;8.370;2023-01-24T04:06:05;23.65;;;11.18;;
31990;SDS011;18508;49.386;8.370;2023-01-24T04:08:33;23.08;;;11.18;;
31990;SDS011;18508;49.386;8.370;2023-01-24T04:11:02;25.85;;;11.38;;
31990;SDS011;18508;49.386;8.370;2023-01-24T04:13:30;22.02;;;9.73;;
31990;SDS011;18508;49.386;8.370;2023-01-24T04:15:58;23.50;;;9.98;;
31990;SDS011;18508;49.386;8.370;2023-01-24T04:18:27;22.23;;;11.18;;
31990;SDS011;18508;49.386;8.370;2023-01-24T04:20:56;25.55;;;10.63;;
31990;SDS011;18508;49.386;8.370;2023-01-24T04:23:28;21.83;;;10.40;;
31990;SDS011;18508;49.386;8.370;2023-01-24T04:25:57;22.40;;;10.07;;
31990;SDS011;18508;49.386;8.370;2023-01-24T04:28:27;26.60;;;10.60;;
31990;SDS011;18508;49.386;8.370;2023-01-24T04:30:55;19.02;;;10.00;;
31990;SDS011;18508;49.386;8.370;2023-01-24T04:33:25;24.98;;;10.65;;
31990;SDS011;18508;49.386;8.370;2023-01-24T04:35:56;20.30;;;9.23;;
31990;SDS011;18508;49.386;8.370;2023-01-24T04:38:24;21.52;;;9.90;;
31990;SDS011;18508;49.386;8.370;2023-01-24T04:40:56;21.95;;;9.38;;
31990;SDS011;18508;49.386;8.370;2023-01-24T04:43:25;18.75;;;9.00;;
31990;SDS011;18508;49.386;8.370;2023-01-24T04:45:56;17.60;;;8.55;;
31990;SDS011;18508;49.386;8.370;2023-01-24T04:48:27;20.70;;;8.68;;
31990;SDS011;18508;49.386;8.370;2023-01-24T04:50:59;20.48;;;9.02;;
31990;SDS011;18508;49.386;8.370;2023-01-24T04:53:28;19.77;;;8.80;;
31990;SDS011;18508;49.386;8.370;2023-01-24T04:55:59;20.70;;;9.43;;
31990;SDS011;18508;49.386;8.370;2023-01-24T04:58:28;22.13;;;9.95;;
31990;SDS011;18508;49.386;8.370;2023-01-24T05:00:56;18.67;;;9.55;;
31990;SDS011;18508;49.386;8.370;2023-01-24T05:03:26;22.95;;;9.43;;
31990;SDS011;18508;49.386;8.370;2023-01-24T05:05:58;17.93;;;9.13;;
31990;SDS011;18508;49.386;8.370;2023-01-24T05:08:26;20.40;;;8.65;;
31990;SDS011;18508;49.386;8.370;2023-01-24T05:10:54;23.48;;;9.13;;
31990;SDS011;18508;49.386;8.370;2023-01-24T05:13:23;18.48;;;9.32;;
31990;SDS011;18508;49.386;8.370;2023-01-24T05:15:51;17.73;;;8.60;;
31990;SDS011;18508;49.386;8.370;2023-01-24T05:18:19;17.77;;;8.43;;
31990;SDS011;18508;49.386;8.370;2023-01-24T05:20:49;17.00;;;7.60;;
31990;SDS011;18508;49.386;8.370;2023-01-24T05:23:17;14.43;;;7.60;;
31990;SDS011;18508;49.386;8.370;2023-01-24T05:25:45;16.08;;;7.18;;
31990;SDS011;18508;49.386;8.370;2023-01-24T05:28:14;18.20;;;8.20;;
31990;SDS011;18508;49.386;8.370;2023-01-24T05:30:42;18.42;;;7.80;;
31990;SDS011;18508;49.386;8.370;2023-01-24T05:33:11;17.15;;;8.18;;
31990;SDS011;18508;49.386;8.370;2023-01-24T05:35:39;19.25;;;8.65;;
31990;SDS011;18508;49.386;8.370;2023-01-24T05:38:11;18.50;;;8.80;;
31990;SDS011;18508;49.386;8.370;2023-01-24T05:40:39;20.35;;;9.50;;
31990;SDS011;18508;49.386;8.370;2023-01-24T05:43:08;21.48;;;8.38;;
31990;SDS011;18508;49.386;8.370;2023-01-24T05:45:39;17.83;;;8.50;;
31990;SDS011;18508;49.386;8.370;2023-01-24T05:48:07;18.92;;;8.30;;
31990;SDS011;18508;49.386;8.370;2023-01-24T05:50:36;18.63;;;8.73;;
31990;SDS011;18508;49.386;8.370;2023-01-24T05:53:06;22.45;;;9.25;;
31990;SDS011;18508;49.386;8.370;2023-01-24T05:55:36;21.42;;;9.55;;
31990;SDS011;18508;49.386;8.370;2023-01-24T05:58:04;20.38;;;8.98;;
31990;SDS011;18508;49.386;8.370;2023-01-24T06:00:33;21.45;;;8.45;;
31990;SDS011;18508;49.386;8.370;2023-01-24T06:03:03;17.55;;;8.10;;
31990;SDS011;18508;49.386;8.370;2023-01-24T06:05:32;20.42;;;9.48;;
31990;SDS011;18508;49.386;8.370;2023-01-24T06:08:00;19.17;;;9.05;;
31990;SDS011;18508;49.386;8.370;2023-01-24T06:10:28;18.42;;;8.32;;
31990;SDS011;18508;49.386;8.370;2023-01-24T06:12:59;18.92;;;8.68;;
31990;SDS011;18508;49.386;8.370;2023-01-24T06:15:28;19.33;;;8.48;;
31990;SDS011;18508;49.386;8.370;2023-01-24T06:17:57;21.65;;;9.85;;
31990;SDS011;18508;49.386;8.370;2023-01-24T06:20:28;19.40;;;8.90;;
31990;SDS011;18508;49.386;8.370;2023-01-24T06:22:59;20.15;;;9.35;;
31990;SDS011;18508;49.386;8.370;2023-01-24T06:25:32;20.70;;;9.25;;
31990;SDS011;18508;49.386;8.370;2023-01-24T06:28:03;19.35;;;9.38;;
31990;SDS011;18508;49.386;8.370;2023-01-24T06:30:31;21.05;;;9.68;;
31990;SDS011;18508;49.386;8.370;2023-01-24T06:33:03;21.35;;;9.20;;
31990;SDS011;18508;49.386;8.370;2023-01-24T06:35:43;20.40;;;9.57;;
31990;SDS011;18508;49.386;8.370;2023-01-24T06:38:23;21.92;;;9.50;;
31990;SDS011;18508;49.386;8.370;2023-01-24T06:40:55;20.17;;;9.57;;
31990;SDS011;18508;49.386;8.370;2023-01-24T06:43:26;18.27;;;9.43;;
31990;SDS011;18508;49.386;8.370;2023-01-24T06:45:55;20.70;;;9.95;;
31990;SDS011;18508;49.386;8.370;2023-01-24T06:48:24;21.13;;;9.85;;
31990;SDS011;18508;49.386;8.370;2023-01-24T06:50:52;24.48;;;10.95;;
31990;SDS011;18508;49.386;8.370;2023-01-24T06:53:21;19.85;;;8.65;;
31990;SDS011;18508;49.386;8.370;2023-01-24T06:55:49;22.35;;;9.65;;
31990;SDS011;18508;49.386;8.370;2023-01-24T06:58:17;19.63;;;9.30;;
31990;SDS011;18508;49.386;8.370;2023-01-24T07:00:47;23.60;;;10.27;;
31990;SDS011;18508;49.386;8.370;2023-01-24T07:03:15;22.77;;;10.25;;
31990;SDS011;18508;49.386;8.370;2023-01-24T07:05:46;20.10;;;9.52;;
31990;SDS011;18508;49.386;8.370;2023-01-24T07:08:15;19.58;;;9.57;;
31990;SDS011;18508;49.386;8.370;2023-01-24T07:10:47;25.00;;;10.13;;
31990;SDS011;18508;49.386;8.370;2023-01-24T07:13:15;22.27;;;10.50;;
31990;SDS011;18508;49.386;8.370;2023-01-24T07:15:44;23.92;;;11.18;;
31990;SDS011;18508;49.386;8.370;2023-01-24T07:18:15;20.45;;;10.10;;
31990;SDS011;18508;49.386;8.370;2023-01-24T07:20:44;19.77;;;10.00;;
31990;SDS011;18508;49.386;8.370;2023-01-24T07:23:16;25.00;;;10.73;;
31990;SDS011;18508;49.386;8.370;2023-01-24T07:25:48;23.70;;;9.85;;
31990;SDS011;18508;49.386;8.370;2023-01-24T07:28:20;25.60;;;10.48;;
31990;SDS011;18508;49.386;8.370;2023-01-24T07:30:48;19.80;;;10.10;;
31990;SDS011;18508;49.386;8.370;2023-01-24T07:33:19;23.27;;;9.68;;
31990;SDS011;18508;49.386;8.370;2023-01-24T07:35:47;23.50;;;10.15;;
31990;SDS011;18508;49.386;8.370;2023-01-24T07:38:17;23.70;;;9.80;;
31990;SDS011;18508;49.386;8.370;2023-01-24T07:40:46;20.88;;;10.02;;
31990;SDS011;18508;49.386;8.370;2023-01-24T07:43:14;22.30;;;10.05;;
31990;SDS011;18508;49.386;8.370;2023-01-24T07:45:46;25.83;;;10.77;;
31990;SDS011;18508;49.386;8.370;2023-01-24T07:48:20;20.60;;;9.77;;
31990;SDS011;18508;49.386;8.370;2023-01-24T07:50:48;22.38;;;10.63;;
31990;SDS011;18508;49.386;8.370;2023-01-24T07:53:18;23.58;;;10.45;;
31990;SDS011;18508;49.386;8.370;2023-01-24T07:55:46;24.48;;;10.55;;
31990;SDS011;18508;49.386;8.370;2023-01-24T07:58:28;27.13;;;10.98;;
31990;SDS011;18508;49.386;8.370;2023-01-24T08:00:56;24.35;;;12.15;;
31990;SDS011;18508;49.386;8.370;2023-01-24T08:03:27;24.48;;;11.07;;
31990;SDS011;18508;49.386;8.370;2023-01-24T08:05:57;23.25;;;10.95;;
31990;SDS011;18508;49.386;8.370;2023-01-24T08:08:26;24.33;;;10.85;;
31990;SDS011;18508;49.386;8.370;2023-01-24T08:10:57;23.60;;;10.88;;
31990;SDS011;18508;49.386;8.370;2023-01-24T08:13:27;24.95;;;11.13;;
31990;SDS011;18508;49.386;8.370;2023-01-24T08:15:56;27.08;;;12.25;;
31990;SDS011;18508;49.386;8.370;2023-01-24T08:18:24;27.60;;;11.05;;
31990;SDS011;18508;49.386;8.370;2023-01-24T08:20:55;24.33;;;10.98;;
31990;SDS011;18508;49.386;8.370;2023-01-24T08:23:24;24.35;;;10.48;;
31990;SDS011;18508;49.386;8.370;2023-01-24T08:25:52;25.27;;;11.70;;
31990;SDS011;18508;49.386;8.370;2023-01-24T08:28:21;23.23;;;10.20;;
31990;SDS011;18508;49.386;8.370;2023-01-24T08:30:51;22.50;;;10.40;;
31990;SDS011;18508;49.386;8.370;2023-01-24T08:33:19;24.88;;;10.25;;
31990;SDS011;18508;49.386;8.370;2023-01-24T08:35:48;25.13;;;11.10;;
31990;SDS011;18508;49.386;8.370;2023-01-24T08:38:17;23.77;;;10.75;;
31990;SDS011;18508;49.386;8.370;2023-01-24T08:40:46;27.35;;;11.20;;
31990;SDS011;18508;49.386;8.370;2023-01-24T08:43:16;25.20;;;11.13;;
31990;SDS011;18508;49.386;8.370;2023-01-24T08:45:44;21.65;;;10.70;;
31990;SDS011;18508;49.386;8.370;2023-01-24T08:48:12;25.40;;;10.13;;
31990;SDS011;18508;49.386;8.370;2023-01-24T08:50:41;21.77;;;10.50;;
31990;SDS011;18508;49.386;8.370;2023-01-24T08:53:10;24.48;;;11.43;;
31990;SDS011;18508;49.386;8.370;2023-01-24T08:55:42;25.27;;;10.95;;
31990;SDS011;18508;49.386;8.370;2023-01-24T09:00:40;29.55;;;11.40;;
31990;SDS011;18508;49.386;8.370;2023-01-24T09:03:08;22.27;;;10.02;;
31990;SDS011;18508;49.386;8.370;2023-01-24T09:05:38;24.60;;;10.95;;
31990;SDS011;18508;49.386;8.370;2023-01-24T09:08:06;27.55;;;11.05;;
31990;SDS011;18508;49.386;8.370;2023-01-24T09:10:34;24.60;;;10.73;;
31990;SDS011;18508;49.386;8.370;2023-01-24T09:13:08;25.40;;;10.50;;
31990;SDS011;18508;49.386;8.370;2023-01-24T09:15:36;25.75;;;11.20;;
31990;SDS011;18508;49.386;8.370;2023-01-24T09:18:04;26.48;;;11.73;;
31990;SDS011;18508;49.386;8.370;2023-01-24T09:20:32;26.50;;;11.40;;
31990;SDS011;18508;49.386;8.370;2023-01-24T09:23:07;28.02;;;12.50;;
31990;SDS011;18508;49.386;8.370;2023-01-24T09:25:36;21.38;;;10.50;;
31990;SDS011;18508;49.386;8.370;2023-01-24T09:28:04;23.88;;;10.88;;
31990;SDS011;18508;49.386;8.370;2023-01-24T09:30:35;26.95;;;11.20;;
31990;SDS011;18508;49.386;8.370;2023-01-24T09:33:04;24.83;;;11.32;;
31990;SDS011;18508;49.386;8.370;2023-01-24T09:35:33;24.55;;;11.40;;
31990;SDS011;18508;49.386;8.370;2023-01-24T09:38:01;24.50;;;11.38;;
31990;SDS011;18508;49.386;8.370;2023-01-24T09:40:34;27.98;;;11.68;;
31990;SDS011;18508;49.386;8.370;2023-01-24T09:43:13;21.08;;;10.65;;
31990;SDS011;18508;49.386;8.370;2023-01-24T09:45:55;23.23;;;11.27;;
31990;SDS011;18508;49.386;8.370;2023-01-24T09:48:32;29.15;;;11.80;;
31990;SDS011;18508;49.386;8.370;2023-01-24T09:51:02;25.75;;;12.57;;
31990;SDS011;18508;49.386;8.370;2023-01-24T09:53:37;24.50;;;11.27;;
31990;SDS011;18508;49.386;8.370;2023-01-24T09:56:19;25.52;;;11.32;;
31990;SDS011;18508;49.386;8.370;2023-01-24T09:58:59;24.70;;;10.50;;
31990;SDS011;18508;49.386;8.370;2023-01-24T10:01:41;25.50;;;11.77;;
31990;SDS011;18508;49.386;8.370;2023-01-24T10:04:14;23.30;;;10.95;;
31990;SDS011;18508;49.386;8.370;2023-01-24T10:06:49;23.23;;;10.68;;
31990;SDS011;18508;49.386;8.370;2023-01-24T10:09:32;21.35;;;10.10;;
31990;SDS011;18508;49.386;8.370;2023-01-24T10:12:17;22.67;;;10.80;;
31990;SDS011;18508;49.386;8.370;2023-01-24T10:14:59;21.98;;;10.07;;
31990;SDS011;18508;49.386;8.370;2023-01-24T10:17:51;22.48;;;10.18;;
31990;SDS011;18508;49.386;8.370;2023-01-24T10:20:45;21.85;;;9.25;;
31990;SDS011;18508;49.386;8.370;2023-01-24T10:23:20;26.92;;;10.57;;
31990;SDS011;18508;49.386;8.370;2023-01-24T10:28:23;22.13;;;9.50;;
31990;SDS011;18508;49.386;8.370;2023-01-24T10:31:00;22.95;;;10.80;;
31990;SDS011;18508;49.386;8.370;2023-01-24T10:33:35;24.13;;;10.07;;
31990;SDS011;18508;49.386;8.370;2023-01-24T10:36:08;24.17;;;10.57;;
31990;SDS011;18508;49.386;8.370;2023-01-24T10:41:13;24.75;;;10.90;;
31990;SDS011;18508;49.386;8.370;2023-01-24T10:43:49;19.70;;;9.93;;
31990;SDS011;18508;49.386;8.370;2023-01-24T10:49:27;22.15;;;10.18;;
31990;SDS011;18508;49.386;8.370;2023-01-24T10:52:10;23.70;;;10.27;;
31990;SDS011;18508;49.386;8.370;2023-01-24T10:54:44;21.92;;;9.98;;
31990;SDS011;18508;49.386;8.370;2023-01-24T11:00:04;19.95;;;9.95;;
31990;SDS011;18508;49.386;8.370;2023-01-24T11:02:51;22.75;;;9.75;;
31990;SDS011;18508;49.386;8.370;2023-01-24T11:05:22;23.75;;;10.48;;
31990;SDS011;18508;49.386;8.370;2023-01-24T11:07:53;26.67;;;10.10;;
31990;SDS011;18508;49.386;8.370;2023-01-24T11:10:28;23.50;;;9.85;;
31990;SDS011;18508;49.386;8.370;2023-01-24T11:13:00;21.98;;;10.18;;
31990;SDS011;18508;49.386;8.370;2023-01-24T11:15:31;21.40;;;10.60;;
31990;SDS011;18508;49.386;8.370;2023-01-24T11:18:05;23.17;;;10.27;;
31990;SDS011;18508;49.386;8.370;2023-01-24T11:20:41;25.73;;;10.32;;
31990;SDS011;18508;49.386;8.370;2023-01-24T11:23:11;21.77;;;9.75;;
31990;SDS011;18508;49.386;8.370;2023-01-24T11:25:52;27.95;;;11.05;;
31990;SDS011;18508;49.386;8.370;2023-01-24T11:28:22;20.98;;;9.30;;
31990;SDS011;18508;49.386;8.370;2023-01-24T11:30:51;20.98;;;9.80;;
31990;SDS011;18508;49.386;8.370;2023-01-24T11:33:30;21.52;;;10.15;;
31990;SDS011;18508;49.386;8.370;2023-01-24T11:36:11;19.63;;;9.65;;
31990;SDS011;18508;49.386;8.370;2023-01-24T11:38:52;23.33;;;9.68;;
31990;SDS011;18508;49.386;8.370;2023-01-24T11:41:27;23.40;;;10.73;;
31990;SDS011;18508;49.386;8.370;2023-01-24T11:44:16;20.92;;;10.02;;
31990;SDS011;18508;49.386;8.370;2023-01-24T11:47:15;23.77;;;9.77;;
31990;SDS011;18508;49.386;8.370;2023-01-24T11:49:53;22.17;;;8.88;;
31990;SDS011;18508;49.386;8.370;2023-01-24T11:52:41;19.80;;;8.85;;
31990;SDS011;18508;49.386;8.370;2023-01-24T11:55:22;22.65;;;10.73;;
31990;SDS011;18508;49.386;8.370;2023-01-24T11:58:00;18.60;;;8.52;;
31990;SDS011;18508;49.386;8.370;2023-01-24T12:00:45;23.58;;;10.13;;
31990;SDS011;18508;49.386;8.370;2023-01-24T12:03:26;19.35;;;9.25;;
31990;SDS011;18508;49.386;8.370;2023-01-24T12:06:14;22.90;;;10.05;;
31990;SDS011;18508;49.386;8.370;2023-01-24T12:08:57;24.10;;;9.88;;
31990;SDS011;18508;49.386;8.370;2023-01-24T12:11:35;21.55;;;9.70;;
31990;SDS011;18508;49.386;8.370;2023-01-24T12:14:16;21.90;;;10.02;;
31990;SDS011;18508;49.386;8.370;2023-01-24T12:17:04;20.00;;;10.23;;
31990;SDS011;18508;49.386;8.370;2023-01-24T12:19:53;20.88;;;10.40;;
31990;SDS011;18508;49.386;8.370;2023-01-24T12:22:29;24.00;;;10.32;;
31990;SDS011;18508;49.386;8.370;2023-01-24T12:25:02;23.15;;;9.63;;
31990;SDS011;18508;49.386;8.370;2023-01-24T12:27:34;18.98;;;9.25;;
31990;SDS011;18508;49.386;8.370;2023-01-24T12:30:06;21.95;;;8.98;;
31990;SDS011;18508;49.386;8.370;2023-01-24T12:32:44;20.58;;;9.27;;
31990;SDS011;18508;49.386;8.370;2023-01-24T12:35:19;20.90;;;9.85;;
31990;SDS011;18508;49.386;8.370;2023-01-24T12:37:54;22.98;;;10.32;;
31990;SDS011;18508;49.386;8.370;2023-01-24T12:40:43;23.45;;;10.75;;
31990;SDS011;18508;49.386;8.370;2023-01-24T12:43:24;24.35;;;10.80;;
31990;SDS011;18508;49.386;8.370;2023-01-24T12:46:01;26.95;;;11.30;;
31990;SDS011;18508;49.386;8.370;2023-01-24T12:48:41;19.45;;;9.80;;
31990;SDS011;18508;49.386;8.370;2023-01-24T12:51:17;18.30;;;10.10;;
31990;SDS011;18508;49.386;8.370;2023-01-24T12:56:40;20.92;;;9.20;;
31990;SDS011;18508;49.386;8.370;2023-01-24T12:59:14;23.65;;;10.30;;
31990;SDS011;18508;49.386;8.370;2023-01-24T13:02:06;20.58;;;10.02;;
31990;SDS011;18508;49.386;8.370;2023-01-24T13:04:55;28.05;;;11.55;;
31990;SDS011;18508;49.386;8.370;2023-01-24T13:07:41;23.67;;;11.18;;
31990;SDS011;18508;49.386;8.370;2023-01-24T13:10:17;25.05;;;11.43;;
31990;SDS011;18508;49.386;8.370;2023-01-24T13:12:52;22.92;;;10.48;;
31990;SDS011;18508;49.386;8.370;2023-01-24T13:15:23;21.30;;;10.52;;
31990;SDS011;18508;49.386;8.370;2023-01-24T13:18:02;20.17;;;9.90;;
31990;SDS011;18508;49.386;8.370;2023-01-24T13:20:51;24.83;;;10.25;;
31990;SDS011;18508;49.386;8.370;2023-01-24T13:23:37;20.73;;;9.50;;
31990;SDS011;18508;49.386;8.370;2023-01-24T13:26:26;17.48;;;8.75;;
31990;SDS011;18508;49.386;8.370;2023-01-24T13:29:15;21.27;;;9.13;;
31990;SDS011;18508;49.386;8.370;2023-01-24T13:32:08;20.52;;;8.88;;
31990;SDS011;18508;49.386;8.370;2023-01-24T13:34:42;22.50;;;9.80;;
31990;SDS011;18508;49.386;8.370;2023-01-24T13:37:17;18.63;;;8.85;;
31990;SDS011;18508;49.386;8.370;2023-01-24T13:39:49;19.45;;;8.43;;
31990;SDS011;18508;49.386;8.370;2023-01-24T13:42:32;18.65;;;8.05;;
31990;SDS011;18508;49.386;8.370;2023-01-24T13:51:30;17.52;;;7.35;;
31990;SDS011;18508;49.386;8.370;2023-01-24T13:54:00;16.95;;;7.97;;
31990;SDS011;18508;49.386;8.370;2023-01-24T13:56:31;17.98;;;8.23;;
31990;SDS011;18508;49.386;8.370;2023-01-24T13:59:01;19.38;;;8.52;;
31990;SDS011;18508;49.386;8.370;2023-01-24T14:01:29;22.98;;;9.90;;
31990;SDS011;18508;49.386;8.370;2023-01-24T14:03:58;19.92;;;8.38;;
31990;SDS011;18508;49.386;8.370;2023-01-24T14:06:40;18.92;;;8.77;;
31990;SDS011;18508;49.386;8.370;2023-01-24T14:09:23;19.70;;;8.65;;
31990;SDS011;18508;49.386;8.370;2023-01-24T14:11:59;17.05;;;8.52;;
31990;SDS011;18508;49.386;8.370;2023-01-24T14:14:32;15.88;;;7.93;;
31990;SDS011;18508;49.386;8.370;2023-01-24T14:19:56;20.00;;;8.55;;
31990;SDS011;18508;49.386;8.370;2023-01-24T14:22:31;20.08;;;7.97;;
31990;SDS011;18508;49.386;8.370;2023-01-24T14:25:16;19.95;;;8.82;;
31990;SDS011;18508;49.386;8.370;2023-01-24T14:27:56;17.90;;;8.35;;
31990;SDS011;18508;49.386;8.370;2023-01-24T14:30:32;20.42;;;9.80;;
31990;SDS011;18508;49.386;8.370;2023-01-24T14:33:04;23.05;;;10.52;;
31990;SDS011;18508;49.386;8.370;2023-01-24T14:35:48;20.48;;;9.18;;
31990;SDS011;18508;49.386;8.370;2023-01-24T14:38:24;21.08;;;8.98;;
31990;SDS011;18508;49.386;8.370;2023-01-24T14:40:53;17.15;;;8.63;;
31990;SDS011;18508;49.386;8.370;2023-01-24T14:43:23;18.40;;;8.07;;
31990;SDS011;18508;49.386;8.370;2023-01-24T14:46:07;16.27;;;8.60;;
31990;SDS011;18508;49.386;8.370;2023-01-24T14:48:37;20.88;;;8.82;;
31990;SDS011;18508;49.386;8.370;2023-01-24T14:51:06;18.92;;;8.85;;
31990;SDS011;18508;49.386;8.370;2023-01-24T14:53:46;19.90;;;8.35;;
31990;SDS011;18508;49.386;8.370;2023-01-24T14:56:19;19.83;;;8.38;;
31990;SDS011;18508;49.386;8.370;2023-01-24T14:58:49;18.95;;;8.60;;
31990;SDS011;18508;49.386;8.370;2023-01-24T15:01:28;22.27;;;8.93;;
31990;SDS011;18508;49.386;8.370;2023-01-24T15:04:00;17.27;;;8.63;;
31990;SDS011;18508;49.386;8.370;2023-01-24T15:06:31;19.63;;;9.05;;
31990;SDS011;18508;49.386;8.370;2023-01-24T15:09:02;21.08;;;8.40;;
31990;SDS011;18508;49.386;8.370;2023-01-24T15:11:32;20.55;;;9.73;;
31990;SDS011;18508;49.386;8.370;2023-01-24T15:14:03;21.80;;;9.15;;
31990;SDS011;18508;49.386;8.370;2023-01-24T15:16:46;23.92;;;9.63;;
31990;SDS011;18508;49.386;8.370;2023-01-24T15:19:18;19.83;;;9.73;;
31990;SDS011;18508;49.386;8.370;2023-01-24T15:21:48;20.98;;;9.55;;
31990;SDS011;18508;49.386;8.370;2023-01-24T15:24:22;20.98;;;9.75;;
31990;SDS011;18508;49.386;8.370;2023-01-24T15:26:52;20.27;;;9.53;;
31990;SDS011;18508;49.386;8.370;2023-01-24T15:32:19;16.80;;;8.88;;